ADDS METAR Data INFO
IDs: Format: Raw Decoded Include TAF

Data at: 0211 UTC 14 Dec 2017

METAR for:KDAB (Daytona Beach Intl, FL, US)
Text:KDAB 140153Z 23006KT 10SM FEW200 08/02 A3005 RMK AO2 SLP174 T00830017
Temperature: 8.3°C ( 47°F)
Dewpoint: 1.7°C ( 35°F) [RH = 63%]
Pressure (altimeter):30.05 inches Hg (1017.7 mb) [Sea level pressure: 1017.4 mb]
Winds:from the SW (230 degrees) at 7 MPH (6 knots; 3.1 m/s)
Visibility:10 or more sm (16+ km)
Ceiling:at least 12,000 feet AGL
Clouds: few clouds at 20000 feet AGL